createdAt,value
2019-03-17T00:00:50.224Z,49.00
2019-03-17T00:03:23.923Z,49.10
2019-03-17T00:05:56.693Z,48.60
2019-03-17T00:08:30.006Z,48.10
2019-03-17T00:11:04.211Z,48.00
2019-03-17T00:13:37.391Z,48.60
2019-03-17T00:16:11.137Z,49.30
2019-03-17T00:18:45.735Z,49.30
2019-03-17T00:21:19.649Z,50.10
2019-03-17T00:23:53.396Z,50.10
2019-03-17T00:26:27.750Z,50.80
2019-03-17T00:29:02.015Z,51.00
2019-03-17T00:31:36.104Z,51.20
2019-03-17T00:34:10.428Z,51.40
2019-03-17T00:36:44.080Z,51.10
2019-03-17T00:39:18.432Z,51.10
2019-03-17T00:41:52.636Z,50.90
2019-03-17T00:44:26.785Z,50.40
2019-03-17T00:47:00.924Z,50.20
2019-03-17T00:49:35.104Z,49.80
2019-03-17T00:52:09.428Z,49.80
2019-03-17T00:54:43.159Z,49.60
2019-03-17T00:57:16.933Z,49.80
2019-03-17T00:59:50.947Z,49.60
2019-03-17T01:02:24.744Z,49.10
2019-03-17T01:04:58.765Z,48.60
2019-03-17T01:07:32.991Z,49.00
2019-03-17T01:10:06.478Z,49.30
2019-03-17T01:12:40.191Z,49.80
2019-03-17T01:15:14.303Z,49.30
2019-03-17T01:17:48.105Z,49.30
2019-03-17T01:20:21.844Z,49.10
2019-03-17T01:22:56.001Z,48.70
2019-03-17T01:25:30.035Z,48.90
2019-03-17T01:28:03.982Z,48.90
2019-03-17T01:30:37.687Z,48.90
2019-03-17T01:33:11.406Z,49.10
2019-03-17T01:35:45.445Z,48.90
2019-03-17T01:38:19.471Z,48.90
2019-03-17T01:40:52.648Z,48.60
2019-03-17T01:43:26.882Z,48.80
2019-03-17T01:46:00.688Z,48.40
2019-03-17T01:48:34.703Z,47.70
2019-03-17T01:51:08.914Z,48.30
2019-03-17T01:53:42.165Z,48.50
2019-03-17T01:56:15.841Z,47.70
2019-03-17T01:58:50.027Z,47.80
2019-03-17T02:01:23.745Z,47.70
2019-03-17T02:03:58.402Z,48.10
2019-03-17T02:06:32.554Z,48.50
2019-03-17T02:09:07.432Z,48.60
2019-03-17T02:11:41.214Z,48.50
2019-03-17T02:14:15.408Z,48.50
2019-03-17T02:16:49.893Z,48.70
2019-03-17T02:19:23.556Z,48.00
2019-03-17T02:21:57.396Z,47.50
2019-03-17T02:24:31.450Z,47.70
2019-03-17T02:27:04.692Z,48.70
2019-03-17T02:29:38.470Z,49.40
2019-03-17T02:32:12.200Z,49.60
2019-03-17T02:34:44.956Z,49.10
2019-03-17T02:37:18.759Z,49.60
2019-03-17T02:39:52.260Z,49.50
2019-03-17T02:42:25.434Z,50.20
2019-03-17T02:44:59.260Z,49.10
2019-03-17T02:50:19.426Z,48.90
2019-03-17T02:52:52.599Z,49.00
2019-03-17T02:55:26.380Z,49.00
2019-03-17T02:58:00.620Z,48.60
2019-03-17T03:00:33.797Z,47.70
2019-03-17T03:03:07.027Z,47.70
2019-03-17T03:05:54.164Z,47.20
2019-03-17T03:08:16.053Z,46.50
2019-03-17T03:10:50.169Z,46.40
2019-03-17T03:13:24.179Z,46.20
2019-03-17T03:15:58.293Z,46.10
2019-03-17T03:18:31.815Z,46.10
2019-03-17T03:21:05.497Z,46.40
2019-03-17T03:23:39.651Z,46.70
2019-03-17T03:26:13.745Z,46.70
2019-03-17T03:28:47.451Z,46.80
2019-03-17T03:31:21.186Z,46.50
2019-03-17T03:33:54.886Z,46.50
2019-03-17T03:36:29.278Z,46.80
2019-03-17T03:39:03.499Z,46.90
2019-03-17T03:41:37.292Z,46.50
2019-03-17T03:44:11.038Z,46.40
2019-03-17T03:46:45.200Z,46.60
2019-03-17T03:49:20.485Z,46.70
2019-03-17T03:51:54.595Z,46.70
2019-03-17T03:54:28.151Z,46.20
2019-03-17T03:57:02.194Z,45.80
2019-03-17T03:59:36.303Z,45.90
2019-03-17T04:02:10.515Z,46.30
2019-03-17T04:04:44.350Z,46.40
2019-03-17T04:07:18.138Z,47.40
2019-03-17T04:09:52.139Z,46.80
2019-03-17T04:12:26.277Z,46.70
2019-03-17T04:15:00.521Z,47.20
2019-03-17T04:17:34.913Z,46.90
2019-03-17T04:20:08.559Z,46.90
2019-03-17T04:22:42.194Z,46.50
2019-03-17T04:25:17.553Z,46.00
2019-03-17T04:27:51.349Z,45.50
2019-03-17T04:30:25.067Z,45.30
2019-03-17T04:32:58.843Z,45.20
2019-03-17T04:35:32.960Z,45.10
2019-03-17T04:38:06.463Z,45.60
2019-03-17T04:40:40.279Z,46.00
2019-03-17T04:43:14.287Z,46.00
2019-03-17T04:45:48.020Z,46.00
2019-03-17T04:48:22.204Z,45.80
2019-03-17T04:50:56.323Z,45.70
2019-03-17T04:53:30.102Z,46.10
2019-03-17T04:56:04.130Z,46.30
2019-03-17T04:58:38.242Z,45.50
2019-03-17T05:01:12.383Z,45.80
2019-03-17T05:03:46.397Z,45.50
2019-03-17T05:06:19.971Z,45.40
2019-03-17T05:08:53.991Z,45.40
2019-03-17T05:11:27.873Z,45.80
2019-03-17T05:14:01.902Z,45.60
2019-03-17T05:16:35.924Z,45.90
2019-03-17T05:19:09.834Z,46.50
2019-03-17T05:21:44.163Z,46.70
2019-03-17T05:24:17.866Z,47.10
2019-03-17T05:26:51.166Z,47.40
2019-03-17T05:29:24.718Z,47.10
2019-03-17T05:31:58.748Z,47.60
2019-03-17T05:34:33.180Z,48.00
2019-03-17T05:37:07.210Z,48.10
2019-03-17T05:39:41.417Z,47.10
2019-03-17T05:42:15.447Z,46.70
2019-03-17T05:44:49.627Z,46.50
2019-03-17T05:47:23.868Z,46.50
2019-03-17T05:49:57.661Z,46.50
2019-03-17T05:52:30.985Z,46.40
2019-03-17T05:55:04.159Z,46.50
2019-03-17T05:57:37.893Z,46.30
2019-03-17T06:00:13.165Z,46.30
2019-03-17T06:02:46.525Z,46.30
2019-03-17T06:05:20.238Z,46.30
2019-03-17T06:07:53.906Z,46.10
2019-03-17T06:10:27.926Z,46.40
2019-03-17T06:13:01.918Z,46.40
2019-03-17T06:15:36.434Z,46.50
2019-03-17T06:18:10.525Z,46.50
2019-03-17T06:20:44.360Z,46.10
2019-03-17T06:23:18.367Z,46.10
2019-03-17T06:25:53.606Z,46.30
2019-03-17T06:28:27.210Z,46.60
2019-03-17T06:31:01.218Z,47.10
2019-03-17T06:33:34.935Z,46.90
2019-03-17T06:36:09.141Z,46.70
2019-03-17T06:38:42.927Z,46.90
2019-03-17T06:41:17.191Z,47.10
2019-03-17T06:43:51.381Z,47.40
2019-03-17T06:46:25.468Z,46.90
2019-03-17T06:48:59.406Z,45.90
2019-03-17T06:51:33.227Z,45.70
2019-03-17T06:54:07.327Z,45.70
2019-03-17T06:56:41.332Z,45.90
2019-03-17T06:59:17.665Z,46.40
2019-03-17T07:01:50.793Z,46.50
2019-03-17T07:04:25.044Z,46.60
2019-03-17T07:06:58.731Z,46.20
2019-03-17T07:09:32.170Z,46.10
2019-03-17T07:12:05.917Z,46.60
2019-03-17T07:14:39.410Z,46.80
2019-03-17T07:17:12.785Z,46.80
2019-03-17T07:19:45.726Z,46.70
2019-03-17T07:22:19.164Z,46.20
2019-03-17T07:24:51.592Z,46.10
2019-03-17T07:27:25.547Z,45.70
2019-03-17T07:29:58.338Z,45.60
2019-03-17T07:32:30.804Z,46.00
2019-03-17T07:35:02.792Z,46.60
2019-03-17T07:37:35.272Z,47.00
2019-03-17T07:40:08.908Z,46.70
2019-03-17T07:42:42.527Z,46.40
2019-03-17T07:45:16.542Z,46.50
2019-03-17T07:47:49.192Z,46.80
2019-03-17T07:50:22.230Z,47.10
2019-03-17T07:52:54.857Z,47.20
2019-03-17T07:55:27.736Z,46.90
2019-03-17T07:58:01.042Z,46.50
2019-03-17T08:00:35.301Z,46.00
2019-03-17T08:03:09.225Z,45.70
2019-03-17T08:05:41.311Z,45.80
2019-03-17T08:08:13.298Z,45.70
2019-03-17T08:10:45.694Z,45.90
2019-03-17T08:13:18.933Z,45.40
2019-03-17T08:15:51.419Z,44.80
2019-03-17T08:18:24.326Z,44.90
2019-03-17T08:20:57.711Z,45.40
2019-03-17T08:23:30.143Z,45.60
2019-03-17T08:26:03.358Z,45.30
2019-03-17T08:28:36.246Z,45.50
2019-03-17T08:31:08.720Z,45.40
2019-03-17T08:33:41.094Z,44.60
2019-03-17T08:36:14.770Z,44.50
2019-03-17T08:38:49.200Z,44.10
2019-03-17T08:41:23.435Z,44.40
2019-03-17T08:43:56.914Z,45.00
2019-03-17T08:46:30.633Z,44.40
2019-03-17T08:49:04.246Z,43.90
2019-03-17T08:51:38.803Z,44.50
2019-03-17T08:54:12.852Z,44.30
2019-03-17T08:56:46.960Z,43.90
2019-03-17T08:59:21.220Z,42.90
2019-03-17T09:01:55.257Z,42.30
2019-03-17T09:04:29.455Z,42.30
2019-03-17T09:07:03.138Z,42.70
2019-03-17T09:09:37.375Z,42.50
2019-03-17T09:12:11.184Z,42.80
2019-03-17T09:14:44.839Z,42.70
2019-03-17T09:17:19.175Z,40.90
2019-03-17T09:19:53.273Z,41.30
2019-03-17T09:22:27.301Z,41.40
2019-03-17T09:25:01.399Z,41.80
2019-03-17T09:27:36.918Z,41.80
2019-03-17T09:30:11.242Z,40.80
2019-03-17T09:32:45.294Z,39.70
2019-03-17T09:35:19.408Z,38.70
2019-03-17T09:37:53.112Z,40.10
2019-03-17T09:40:27.020Z,41.40
2019-03-17T09:43:01.219Z,39.00
2019-03-17T09:45:35.142Z,39.70
2019-03-17T09:48:08.845Z,38.70
2019-03-17T09:50:43.049Z,38.60
2019-03-17T09:53:16.782Z,37.70
2019-03-17T09:55:50.780Z,38.10
2019-03-17T09:58:24.602Z,37.80
2019-03-17T10:00:57.886Z,39.20
2019-03-17T10:03:31.112Z,39.10
2019-03-17T10:06:05.169Z,38.50
2019-03-17T10:08:38.902Z,38.50
2019-03-17T10:11:12.302Z,37.60
2019-03-17T10:13:45.867Z,37.30
2019-03-17T10:16:19.898Z,37.70
2019-03-17T10:18:53.590Z,37.80
2019-03-17T10:21:27.614Z,37.20
2019-03-17T10:24:00.898Z,36.20
2019-03-17T10:26:34.490Z,36.00
2019-03-17T10:29:08.092Z,35.90
2019-03-17T10:31:42.123Z,36.70
2019-03-17T10:34:15.428Z,35.30
2019-03-17T10:36:49.557Z,35.50
2019-03-17T10:39:23.145Z,35.00
2019-03-17T10:41:56.681Z,34.70
2019-03-17T10:44:30.931Z,35.00
2019-03-17T10:47:04.844Z,33.90
2019-03-17T10:49:38.977Z,33.70
2019-03-17T10:52:13.113Z,33.80
2019-03-17T10:54:47.098Z,33.30
2019-03-17T10:57:20.856Z,33.60
2019-03-17T10:59:54.114Z,33.00
2019-03-17T11:02:30.894Z,32.20
2019-03-17T11:05:06.028Z,32.60
2019-03-17T11:07:43.443Z,30.00
2019-03-17T11:10:15.907Z,30.70
2019-03-17T11:12:49.047Z,30.00
2019-03-17T11:15:20.968Z,31.30
2019-03-17T11:17:52.880Z,31.00
2019-03-17T11:20:25.391Z,30.90
2019-03-17T11:22:58.154Z,31.20
2019-03-17T11:25:30.580Z,31.10
2019-03-17T11:28:02.929Z,30.70
2019-03-17T11:30:35.324Z,30.00
2019-03-17T11:33:08.318Z,30.00
2019-03-17T11:35:42.019Z,29.20
2019-03-17T11:38:15.026Z,27.10
2019-03-17T11:40:47.942Z,26.40
2019-03-17T11:43:20.339Z,26.30
2019-03-17T11:45:53.070Z,25.60
2019-03-17T11:48:25.820Z,25.40
2019-03-17T11:50:58.838Z,23.70
2019-03-17T11:53:31.198Z,24.30
2019-03-17T11:56:04.939Z,23.90
2019-03-17T11:58:37.326Z,25.00
2019-03-17T12:01:10.249Z,23.70
2019-03-17T12:03:43.030Z,23.30
2019-03-17T12:06:15.427Z,23.60
2019-03-17T12:08:48.224Z,24.20
2019-03-17T12:11:20.714Z,23.60
2019-03-17T12:13:54.034Z,24.10
2019-03-17T12:16:26.411Z,27.00
2019-03-17T12:18:58.847Z,27.30
2019-03-17T12:21:31.266Z,27.00
2019-03-17T12:24:03.595Z,26.70
2019-03-17T12:26:35.994Z,26.50
2019-03-17T12:29:08.702Z,26.80
2019-03-17T12:31:41.050Z,26.00
2019-03-17T12:34:13.431Z,25.60
2019-03-17T12:36:46.317Z,25.60
2019-03-17T12:39:18.677Z,25.80
2019-03-17T12:41:51.064Z,25.70
2019-03-17T12:44:24.831Z,25.60
2019-03-17T12:46:57.265Z,25.40
2019-03-17T12:49:30.634Z,25.00
2019-03-17T12:52:03.917Z,24.50
2019-03-17T12:54:36.277Z,24.00
2019-03-17T12:57:08.695Z,23.50
2019-03-17T12:59:40.655Z,23.20
2019-03-17T13:02:13.981Z,22.70
2019-03-17T13:04:46.404Z,23.00
2019-03-17T13:07:18.792Z,22.10
2019-03-17T13:09:51.216Z,22.10
2019-03-17T13:12:24.572Z,21.70
2019-03-17T13:14:57.554Z,21.60
2019-03-17T13:17:29.398Z,21.50
2019-03-17T13:20:01.415Z,21.40
2019-03-17T13:22:34.200Z,21.80
2019-03-17T13:25:07.593Z,22.40
2019-03-17T13:27:40.828Z,21.50
2019-03-17T13:30:14.041Z,20.10
2019-03-17T13:32:46.633Z,21.50
2019-03-17T13:35:20.469Z,21.20
2019-03-17T13:37:53.528Z,21.90
2019-03-17T13:40:30.207Z,22.10
2019-03-17T13:43:00.547Z,22.50
2019-03-17T13:45:32.976Z,22.10
2019-03-17T13:48:05.831Z,20.20
2019-03-17T13:50:39.720Z,20.10
2019-03-17T13:53:13.030Z,19.80
2019-03-17T13:55:45.392Z,20.10
2019-03-17T13:58:18.083Z,20.20
2019-03-17T14:00:51.058Z,20.30
2019-03-17T14:03:23.931Z,20.30
2019-03-17T14:05:57.500Z,20.70
2019-03-17T14:08:30.759Z,20.00
2019-03-17T14:11:04.489Z,20.00
2019-03-17T14:13:37.205Z,20.30
2019-03-17T14:16:09.678Z,19.60
2019-03-17T14:18:42.131Z,20.20
2019-03-17T14:21:15.517Z,20.90
2019-03-17T14:23:49.366Z,21.30
2019-03-17T14:26:22.372Z,21.50
2019-03-17T14:28:55.483Z,22.00
2019-03-17T14:31:29.164Z,21.50
2019-03-17T14:34:02.387Z,21.30
2019-03-17T14:36:35.800Z,21.60
2019-03-17T14:39:10.067Z,21.60
2019-03-17T14:41:43.489Z,21.50
2019-03-17T14:44:16.233Z,20.60
2019-03-17T14:46:49.040Z,20.40
2019-03-17T14:49:22.432Z,20.20
2019-03-17T14:51:55.857Z,20.40
2019-03-17T14:54:29.894Z,20.20
2019-03-17T14:57:03.566Z,20.10
2019-03-17T14:59:36.385Z,20.20
2019-03-17T15:02:10.023Z,20.90
2019-03-17T15:04:43.657Z,21.20
2019-03-17T15:07:16.099Z,21.60
2019-03-17T15:09:49.320Z,21.90
2019-03-17T15:12:22.609Z,22.50
2019-03-17T15:14:56.558Z,22.40
2019-03-17T15:17:30.905Z,22.60
2019-03-17T15:20:04.431Z,22.60
2019-03-17T15:22:38.535Z,22.50
2019-03-17T15:25:12.242Z,22.60
2019-03-17T15:27:46.542Z,22.50
2019-03-17T15:30:25.082Z,22.40
2019-03-17T15:32:59.305Z,22.20
2019-03-17T15:35:33.841Z,21.90
2019-03-17T15:38:07.833Z,21.50
2019-03-17T15:40:41.966Z,21.30
2019-03-17T15:43:15.619Z,21.40
2019-03-17T15:45:49.483Z,21.50
2019-03-17T15:48:23.340Z,21.40
2019-03-17T15:50:56.638Z,21.10
2019-03-17T15:53:30.874Z,21.60
2019-03-17T15:56:04.555Z,21.60
2019-03-17T15:58:38.631Z,21.50
2019-03-17T16:01:12.370Z,21.80
2019-03-17T16:03:45.734Z,22.10
2019-03-17T16:06:19.198Z,22.70
2019-03-17T16:08:53.426Z,23.30
2019-03-17T16:11:31.199Z,23.90
2019-03-17T16:14:02.665Z,24.40
2019-03-17T16:16:37.079Z,25.30
2019-03-17T16:19:11.499Z,25.80
2019-03-17T16:21:45.402Z,26.00
2019-03-17T16:24:19.216Z,26.40
2019-03-17T16:26:53.455Z,26.70
2019-03-17T16:29:27.542Z,26.90
2019-03-17T16:32:01.631Z,27.00
2019-03-17T16:34:35.640Z,27.00
2019-03-17T16:37:09.751Z,27.10
2019-03-17T16:39:43.783Z,27.50
2019-03-17T16:42:18.001Z,27.50
2019-03-17T16:44:50.888Z,27.60
2019-03-17T16:47:24.513Z,27.60
2019-03-17T16:49:59.018Z,27.60
2019-03-17T16:52:33.029Z,27.50
2019-03-17T16:55:07.148Z,27.40
2019-03-17T16:57:41.258Z,27.50
2019-03-17T17:00:19.303Z,27.60
2019-03-17T17:02:52.635Z,27.70
2019-03-17T17:05:25.322Z,27.70
2019-03-17T17:07:59.329Z,27.80
2019-03-17T17:10:32.439Z,27.60
2019-03-17T17:13:06.234Z,27.80
2019-03-17T17:15:39.130Z,28.00
2019-03-17T17:18:13.344Z,28.00
2019-03-17T17:20:47.255Z,27.60
2019-03-17T17:23:21.055Z,27.70
2019-03-17T17:25:54.944Z,27.70
2019-03-17T17:28:29.698Z,27.50
2019-03-17T17:31:03.790Z,27.70
2019-03-17T17:33:37.415Z,27.80
2019-03-17T17:36:11.137Z,27.80
2019-03-17T17:38:44.927Z,27.90
2019-03-17T17:41:18.837Z,28.10
2019-03-17T17:43:52.929Z,28.10
2019-03-17T17:46:26.652Z,27.90
2019-03-17T17:49:01.174Z,27.90
2019-03-17T17:51:34.783Z,27.70
2019-03-17T17:54:09.002Z,27.40
2019-03-17T17:56:42.989Z,27.20
2019-03-17T17:59:16.686Z,27.00
2019-03-17T18:01:51.103Z,27.70
2019-03-17T18:04:24.949Z,27.30
2019-03-17T18:06:59.059Z,27.00
2019-03-17T18:09:32.969Z,27.00
2019-03-17T18:12:05.758Z,26.80
2019-03-17T18:14:39.854Z,26.70
2019-03-17T18:17:13.950Z,26.80
2019-03-17T18:19:47.960Z,26.50
2019-03-17T18:22:21.743Z,26.60
2019-03-17T18:24:55.336Z,26.70
2019-03-17T18:27:27.661Z,26.90
2019-03-17T18:30:00.023Z,26.90
2019-03-17T18:32:33.695Z,27.10
2019-03-17T18:35:06.853Z,27.00
2019-03-17T18:37:39.825Z,27.00
2019-03-17T18:40:14.234Z,27.40
2019-03-17T18:42:47.530Z,27.20
2019-03-17T18:45:21.028Z,27.20
2019-03-17T18:47:57.329Z,27.20
2019-03-17T18:50:28.443Z,27.20
2019-03-17T18:53:01.869Z,27.20
2019-03-17T18:55:34.746Z,27.30
2019-03-17T18:58:07.638Z,27.30
2019-03-17T19:00:40.737Z,27.10
2019-03-17T19:03:13.684Z,27.10
2019-03-17T19:05:46.650Z,27.20
2019-03-17T19:08:19.737Z,27.60
2019-03-17T19:10:53.493Z,27.80
2019-03-17T19:13:25.889Z,27.50
2019-03-17T19:15:58.395Z,27.70
2019-03-17T19:18:30.761Z,27.90
2019-03-17T19:21:04.157Z,28.10
2019-03-17T19:23:37.227Z,28.00
2019-03-17T19:26:11.106Z,28.00
2019-03-17T19:28:43.192Z,28.00
2019-03-17T19:31:16.313Z,28.00
2019-03-17T19:33:48.732Z,27.90
2019-03-17T19:36:21.213Z,28.20
2019-03-17T19:38:54.228Z,28.60
2019-03-17T19:41:27.412Z,29.10
2019-03-17T19:44:00.273Z,29.10
2019-03-17T19:46:33.745Z,29.60
2019-03-17T19:49:09.374Z,30.00
2019-03-17T19:51:42.414Z,30.20
2019-03-17T19:54:15.386Z,30.70
2019-03-17T19:56:54.262Z,31.30
2019-03-17T19:59:26.284Z,32.00
2019-03-17T20:01:59.210Z,33.00
2019-03-17T20:04:35.157Z,35.10
2019-03-17T20:07:08.163Z,36.60
2019-03-17T20:09:41.363Z,38.90
2019-03-17T20:12:14.731Z,40.90
2019-03-17T20:14:47.959Z,42.20
2019-03-17T20:17:20.904Z,43.80
2019-03-17T20:19:53.296Z,45.20
2019-03-17T20:22:26.377Z,45.80
2019-03-17T20:24:59.269Z,45.70
2019-03-17T20:27:31.739Z,46.10
2019-03-17T20:30:03.725Z,46.50
2019-03-17T20:32:36.725Z,47.00
2019-03-17T20:35:11.199Z,47.30
2019-03-17T20:37:44.529Z,47.10
2019-03-17T20:40:17.082Z,47.10
2019-03-17T20:42:50.073Z,47.10
2019-03-17T20:45:23.188Z,46.70
2019-03-17T20:47:55.668Z,46.70
2019-03-17T20:50:28.053Z,46.30
2019-03-17T20:53:01.069Z,46.00
2019-03-17T20:55:33.495Z,46.10
2019-03-17T20:58:06.386Z,45.50
2019-03-17T21:00:39.810Z,46.00
2019-03-17T21:03:13.530Z,46.00
2019-03-17T21:05:46.596Z,46.10
2019-03-17T21:08:20.164Z,46.00
2019-03-17T21:10:54.307Z,45.70
2019-03-17T21:13:27.888Z,45.90
2019-03-17T21:16:01.607Z,45.40
2019-03-17T21:18:35.336Z,45.70
2019-03-17T21:21:09.834Z,45.80
2019-03-17T21:23:46.321Z,45.20
2019-03-17T21:26:19.702Z,45.00
2019-03-17T21:28:53.448Z,44.70
2019-03-17T21:31:27.413Z,44.90
2019-03-17T21:34:01.512Z,44.70
2019-03-17T21:36:35.290Z,43.60
2019-03-17T21:39:10.190Z,43.20
2019-03-17T21:41:44.769Z,42.90
2019-03-17T21:44:17.763Z,42.70
2019-03-17T21:46:51.923Z,42.90
2019-03-17T21:49:25.996Z,42.70
2019-03-17T21:52:00.127Z,42.70
2019-03-17T21:54:33.405Z,42.50
2019-03-17T21:57:07.409Z,42.20
2019-03-17T21:59:40.701Z,42.00
2019-03-17T22:02:14.864Z,41.60
2019-03-17T22:04:48.950Z,40.90
2019-03-17T22:07:22.684Z,40.80
2019-03-17T22:09:56.707Z,41.10
2019-03-17T22:12:30.621Z,41.00
2019-03-17T22:15:04.743Z,41.70
2019-03-17T22:17:38.287Z,41.70
2019-03-17T22:20:11.380Z,41.20
2019-03-17T22:22:45.036Z,40.80
2019-03-17T22:25:18.175Z,40.30
2019-03-17T22:27:51.775Z,40.10
2019-03-17T22:30:25.473Z,39.60
2019-03-17T22:32:58.704Z,39.10
2019-03-17T22:35:32.984Z,39.20
2019-03-17T22:38:06.722Z,39.30
2019-03-17T22:40:40.678Z,38.90
2019-03-17T22:43:14.431Z,38.60
2019-03-17T22:45:48.549Z,38.30
2019-03-17T22:48:22.530Z,38.40
2019-03-17T22:50:57.192Z,38.30
2019-03-17T22:53:31.049Z,39.10
2019-03-17T22:56:04.981Z,39.30
2019-03-17T22:58:38.537Z,40.10
2019-03-17T23:01:11.944Z,40.30
2019-03-17T23:03:45.625Z,40.50
2019-03-17T23:06:19.331Z,40.80
2019-03-17T23:08:53.017Z,41.40
2019-03-17T23:11:26.936Z,41.00
2019-03-17T23:14:00.128Z,41.00
2019-03-17T23:16:33.839Z,41.00
2019-03-17T23:19:08.256Z,40.70
2019-03-17T23:21:41.948Z,40.30
2019-03-17T23:24:15.979Z,40.20
2019-03-17T23:26:49.711Z,40.50
2019-03-17T23:29:23.895Z,41.20
2019-03-17T23:31:57.210Z,41.70
2019-03-17T23:34:31.511Z,43.10
2019-03-17T23:37:05.514Z,44.80
2019-03-17T23:39:39.548Z,45.70
2019-03-17T23:42:13.643Z,47.10
2019-03-17T23:44:49.174Z,46.70
2019-03-17T23:47:23.590Z,44.80
2019-03-17T23:49:57.198Z,43.80
2019-03-17T23:52:31.222Z,44.20
2019-03-17T23:55:05.012Z,43.80
2019-03-17T23:57:38.761Z,43.90
